Flood From: 21-02-2018 18:00 Until: 22-02-2018 16:00 warning for: Flood Level: Yellow info button

Although rather usual in this region, locally or potentially dangerous phenomena are expected. (such as local winds, summer thunderstorms, rising streams or high waves) Be aware and pay attention to the latest weather updates, especially if you carry out activities exposed to weather or close to a stream or shoreline. 


Meteo18 Weather Cam more information Meteo18 Weather Cam


Thunder radar more information blitzortung!


Rain radar more information rain snow radar


Visit our other weather sites:

Template documentation
and downloads

And another site



Weather Underground History page Text

Daily Summary for October 11, 2017 Units:  Both    English   Metric
« Previous Day
Next Day »
Daily Weekly Monthly Yearly Custom
  High: Low: Average:
Temperature: TemperatureC °F /  -17.8 °C 8.4 °F /  -13.1 °C 13.5 °F /  -10.3 °C
Dew Point: DewpointC °F /  -17.8 °C 8.0 °F /  -13.3 °C 11.2 °F /  -11.6 °C
Humidity: Humidity % 58 % 86 %
Wind Speed: WindSpeedKMH mph /  0 km/h - 1.2 mph /  1.9 km/h
Wind Gust: WindSpeedGustKMH mph /  0 km/h - -
Wind:- - SW
Pressure: PressurehPa in /  0 hPa 1018.8 in /  34496.6 hPa -
Precipitation: 0.3 in /  7.62 mm    
Historical Graphs
 
 
Tabular Data for October 11, 2017
Time Temperature Dew Point Pressure Wind Wind Speed Wind Gust Humidity Rainfall Rate (Hourly)
TemperatureC °F /  -17.8 °C DewpointC °F /  -17.8 °C PressurehPa in /  0 hPa Calm     Humidity % HourlyPrecipMM in /  0 mm
00:02 13.4 °F /  -10.3 °C 12.1 °F /  -11.1 °C 1022.6 in /  34625.2 hPa Calm     92 % 0.0 in /  0 mm
00:12 13.3 °F /  -10.4 °C 12.2 °F /  -11 °C 1022.6 in /  34625.2 hPa Calm     93 % 0.0 in /  0 mm
00:17 13.2 °F /  -10.4 °C 12.1 °F /  -11.1 °C 1022.6 in /  34625.2 hPa Calm     93 % 0.0 in /  0 mm
00:22 13.2 °F /  -10.4 °C 12.1 °F /  -11.1 °C 1022.2 in /  34611.7 hPa Calm     93 % 0.0 in /  0 mm
00:32 13.2 °F /  -10.4 °C 12.1 °F /  -11.1 °C 1022.2 in /  34611.7 hPa Calm     93 % 0.0 in /  0 mm
00:42 13.1 °F /  -10.5 °C 12.0 °F /  -11.1 °C 1022.2 in /  34611.7 hPa Calm     93 % 0.0 in /  0 mm
00:47 13.1 °F /  -10.5 °C 12.0 °F /  -11.1 °C 1022.2 in /  34611.7 hPa Calm     93 % 0.0 in /  0 mm
00:52 13.0 °F /  -10.6 °C 12.1 °F /  -11.1 °C 1022.2 in /  34611.7 hPa Calm     94 % 0.0 in /  0 mm
00:57 12.9 °F /  -10.6 °C 12.0 °F /  -11.1 °C 1022.2 in /  34611.7 hPa Calm     94 % 0.0 in /  0 mm
01:02 12.9 °F /  -10.6 °C 12.0 °F /  -11.1 °C 1022.2 in /  34611.7 hPa Calm     94 % 0.0 in /  0 mm
01:07 12.9 °F /  -10.6 °C 12.0 °F /  -11.1 °C 1022.2 in /  34611.7 hPa Calm     94 % 0.0 in /  0 mm
01:12 12.9 °F /  -10.6 °C 12.0 °F /  -11.1 °C 1022.2 in /  34611.7 hPa Calm     94 % 0.0 in /  0 mm
01:17 12.9 °F /  -10.6 °C 12.0 °F /  -11.1 °C 1021.9 in /  34601.5 hPa Calm     94 % 0.0 in /  0 mm
01:22 12.8 °F /  -10.7 °C 11.9 °F /  -11.2 °C 1021.9 in /  34601.5 hPa Calm     94 % 0.0 in /  0 mm
01:27 12.8 °F /  -10.7 °C 11.9 °F /  -11.2 °C 1021.9 in /  34601.5 hPa Calm     94 % 0.0 in /  0 mm
01:32 12.8 °F /  -10.7 °C 11.9 °F /  -11.2 °C 1021.9 in /  34601.5 hPa Calm     94 % 0.0 in /  0 mm
01:42 12.7 °F /  -10.7 °C 11.8 °F /  -11.2 °C 1021.9 in /  34601.5 hPa Calm     94 % 0.0 in /  0 mm
01:47 12.6 °F /  -10.8 °C 11.7 °F /  -11.3 °C 1021.9 in /  34601.5 hPa Calm     94 % 0.0 in /  0 mm
01:52 12.5 °F /  -10.8 °C 11.7 °F /  -11.3 °C 1021.9 in /  34601.5 hPa Calm     95 % 0.0 in /  0 mm
01:57 12.3 °F /  -10.9 °C 11.5 °F /  -11.4 °C 1021.9 in /  34601.5 hPa Calm     95 % 0.0 in /  0 mm
02:02 12.2 °F /  -11 °C 11.4 °F /  -11.4 °C 1022.2 in /  34611.7 hPa Calm     95 % 0.0 in /  0 mm
02:12 12.2 °F /  -11 °C 11.4 °F /  -11.4 °C 1022.2 in /  34611.7 hPa Calm     95 % 0.0 in /  0 mm
02:17 12.2 °F /  -11 °C 11.6 °F /  -11.3 °C 1022.2 in /  34611.7 hPa Calm     96 % 0.0 in /  0 mm
02:22 12.0 °F /  -11.1 °C 11.2 °F /  -11.6 °C 1021.9 in /  34601.5 hPa Calm     95 % 0.0 in /  0 mm
02:27 11.9 °F /  -11.2 °C 11.3 °F /  -11.5 °C 1021.9 in /  34601.5 hPa Calm     96 % 0.0 in /  0 mm
02:32 11.9 °F /  -11.2 °C 11.3 °F /  -11.5 °C 1021.9 in /  34601.5 hPa Calm     96 % 0.0 in /  0 mm
02:37 11.8 °F /  -11.2 °C 11.2 °F /  -11.6 °C 1021.9 in /  34601.5 hPa Calm     96 % 0.0 in /  0 mm
02:42 11.6 °F /  -11.3 °C 10.8 °F /  -11.8 °C 1021.9 in /  34601.5 hPa Calm     95 % 0.0 in /  0 mm
02:47 11.5 °F /  -11.4 °C 10.9 °F /  -11.7 °C 1021.9 in /  34601.5 hPa Calm   1.6 mph /  2.6 km/h 96 % 0.0 in /  0 mm
02:52 11.6 °F /  -11.3 °C 11.0 °F /  -11.7 °C 1021.9 in /  34601.5 hPa Calm   1.6 mph /  2.6 km/h 96 % 0.0 in /  0 mm
02:57 11.7 °F /  -11.3 °C 11.1 °F /  -11.6 °C 1021.9 in /  34601.5 hPa Calm   1.6 mph /  2.6 km/h 96 % 0.0 in /  0 mm
03:02 11.6 °F /  -11.3 °C 11.0 °F /  -11.7 °C 1021.9 in /  34601.5 hPa Calm     96 % 0.0 in /  0 mm
03:07 11.4 °F /  -11.4 °C 10.8 °F /  -11.8 °C 1021.9 in /  34601.5 hPa Calm     96 % 0.0 in /  0 mm
03:12 11.2 °F /  -11.6 °C 10.6 °F /  -11.9 °C 1021.9 in /  34601.5 hPa Calm     96 % 0.0 in /  0 mm
03:17 11.1 °F /  -11.6 °C 10.5 °F /  -11.9 °C 1021.9 in /  34601.5 hPa Calm     96 % 0.0 in /  0 mm
03:22 11.0 °F /  -11.7 °C 10.4 °F /  -12 °C 1021.9 in /  34601.5 hPa Calm     96 % 0.0 in /  0 mm
03:27 10.9 °F /  -11.7 °C 10.3 °F /  -12.1 °C 1021.9 in /  34601.5 hPa Calm     96 % 0.0 in /  0 mm
03:32 10.9 °F /  -11.7 °C 10.4 °F /  -12 °C 1021.9 in /  34601.5 hPa Calm     97 % 0.0 in /  0 mm
03:37 11.1 °F /  -11.6 °C 10.6 °F /  -11.9 °C 1021.9 in /  34601.5 hPa Calm     97 % 0.0 in /  0 mm
03:42 11.0 °F /  -11.7 °C 10.5 °F /  -11.9 °C 1021.9 in /  34601.5 hPa Calm     97 % 0.0 in /  0 mm
03:47 10.8 °F /  -11.8 °C 10.2 °F /  -12.1 °C 1021.6 in /  34591.4 hPa Calm     96 % 0.0 in /  0 mm
03:52 10.8 °F /  -11.8 °C 10.3 °F /  -12.1 °C 1021.6 in /  34591.4 hPa Calm     97 % 0.0 in /  0 mm
03:57 10.9 °F /  -11.7 °C 10.4 °F /  -12 °C 1021.6 in /  34591.4 hPa Calm     97 % 0.0 in /  0 mm
04:02 10.8 °F /  -11.8 °C 10.2 °F /  -12.1 °C 1021.6 in /  34591.4 hPa Calm     96 % 0.0 in /  0 mm
04:07 10.7 °F /  -11.8 °C 10.1 °F /  -12.2 °C 1021.6 in /  34591.4 hPa Calm     96 % 0.0 in /  0 mm
04:12 10.6 °F /  -11.9 °C 10.0 °F /  -12.2 °C 1021.6 in /  34591.4 hPa Calm     96 % 0.0 in /  0 mm
04:17 10.6 °F /  -11.9 °C 10.0 °F /  -12.2 °C 1021.6 in /  34591.4 hPa Calm     96 % 0.0 in /  0 mm
04:22 10.4 °F /  -12 °C 9.8 °F /  -12.3 °C 1021.6 in /  34591.4 hPa Calm     96 % 0.0 in /  0 mm
04:32 10.3 °F /  -12.1 °C 9.7 °F /  -12.4 °C 1021.6 in /  34591.4 hPa Calm     96 % 0.0 in /  0 mm
04:37 10.3 °F /  -12.1 °C 9.8 °F /  -12.3 °C 1021.6 in /  34591.4 hPa Calm     97 % 0.0 in /  0 mm
04:42 10.3 °F /  -12.1 °C 9.8 °F /  -12.3 °C 1021.6 in /  34591.4 hPa Calm   1.6 mph /  2.6 km/h 97 % 0.0 in /  0 mm
04:52 10.1 °F /  -12.2 °C 9.5 °F /  -12.5 °C 1021.2 in /  34577.8 hPa Calm   1.6 mph /  2.6 km/h 96 % 0.0 in /  0 mm
04:57 10.1 °F /  -12.2 °C 9.6 °F /  -12.4 °C 1021.6 in /  34591.4 hPa Calm   1.6 mph /  2.6 km/h 97 % 0.0 in /  0 mm
05:02 9.9 °F /  -12.3 °C 9.3 °F /  -12.6 °C 1021.2 in /  34577.8 hPa Calm   1.6 mph /  2.6 km/h 96 % 0.0 in /  0 mm
05:07 9.9 °F /  -12.3 °C 9.4 °F /  -12.6 °C 1021.2 in /  34577.8 hPa Calm   1.6 mph /  2.6 km/h 97 % 0.0 in /  0 mm
05:12 10.1 °F /  -12.2 °C 9.6 °F /  -12.4 °C 1021.2 in /  34577.8 hPa Calm   1.6 mph /  2.6 km/h 97 % 0.0 in /  0 mm
05:22 9.9 °F /  -12.3 °C 9.4 °F /  -12.6 °C 1021.2 in /  34577.8 hPa Calm   1.6 mph /  2.6 km/h 97 % 0.0 in /  0 mm
05:32 9.6 °F /  -12.4 °C 9.0 °F /  -12.8 °C 1021.2 in /  34577.8 hPa Calm     96 % 0.0 in /  0 mm
05:42 9.4 °F /  -12.6 °C 8.9 °F /  -12.8 °C 1021.2 in /  34577.8 hPa Calm     97 % 0.0 in /  0 mm
05:47 9.3 °F /  -12.6 °C 8.8 °F /  -12.9 °C 1021.2 in /  34577.8 hPa Calm     97 % 0.0 in /  0 mm
05:52 9.2 °F /  -12.7 °C 8.7 °F /  -12.9 °C 1021.2 in /  34577.8 hPa Calm     97 % 0.0 in /  0 mm
05:57 9.1 °F /  -12.7 °C 8.6 °F /  -13 °C 1021.2 in /  34577.8 hPa Calm   1.6 mph /  2.6 km/h 97 % 0.0 in /  0 mm
06:02 9.1 °F /  -12.7 °C 8.6 °F /  -13 °C 1021.2 in /  34577.8 hPa Calm   1.6 mph /  2.6 km/h 97 % 0.0 in /  0 mm
06:12 9.1 °F /  -12.7 °C 8.6 °F /  -13 °C 1021.2 in /  34577.8 hPa Calm   1.6 mph /  2.6 km/h 97 % 0.0 in /  0 mm
06:17 9.1 °F /  -12.7 °C 8.6 °F /  -13 °C 1021.2 in /  34577.8 hPa Calm     97 % 0.0 in /  0 mm
06:22 9.1 °F /  -12.7 °C 8.6 °F /  -13 °C 1021.2 in /  34577.8 hPa Calm     97 % 0.0 in /  0 mm
06:32 9.1 °F /  -12.7 °C 8.6 °F /  -13 °C 1021.2 in /  34577.8 hPa Calm     97 % 0.0 in /  0 mm
06:42 9.0 °F /  -12.8 °C 8.5 °F /  -13.1 °C 1021.2 in /  34577.8 hPa Calm     97 % 0.0 in /  0 mm
06:47 8.9 °F /  -12.8 °C 8.4 °F /  -13.1 °C 1021.2 in /  34577.8 hPa Calm     97 % 0.0 in /  0 mm
06:52 8.8 °F /  -12.9 °C 8.3 °F /  -13.2 °C 1021.2 in /  34577.8 hPa Calm     97 % 0.0 in /  0 mm
07:12 8.8 °F /  -12.9 °C 8.3 °F /  -13.2 °C 1021.2 in /  34577.8 hPa Calm     97 % 0.0 in /  0 mm
07:17 8.7 °F /  -12.9 °C 8.3 °F /  -13.2 °C 1021.2 in /  34577.8 hPa Calm     97 % 0.0 in /  0 mm
07:22 8.5 °F /  -13.1 °C 8.1 °F /  -13.3 °C 1021.2 in /  34577.8 hPa Calm     97 % 0.0 in /  0 mm
07:32 8.4 °F /  -13.1 °C 8.0 °F /  -13.3 °C 1021.2 in /  34577.8 hPa Calm     97 % 0.0 in /  0 mm
17:37 21.4 °F /  -5.9 °C 12.8 °F /  -10.7 °C 1018.8 in /  34496.6 hPa SSW 6.4 mph /  10.3 km/h 19.3 mph /  31.1 km/h 58 % 0.0 in /  0 mm
17:42 21.4 °F /  -5.9 °C 13.1 °F /  -10.5 °C 1018.8 in /  34496.6 hPa SSW 4.8 mph /  7.7 km/h 12.9 mph /  20.8 km/h 59 % 0.0 in /  0 mm
17:47 21.3 °F /  -5.9 °C 13.2 °F /  -10.4 °C 1018.8 in /  34496.6 hPa SW 6.4 mph /  10.3 km/h 17.7 mph /  28.5 km/h 60 % 0.0 in /  0 mm
17:57 21.2 °F /  -6 °C 13.1 °F /  -10.5 °C 1018.8 in /  34496.6 hPa South 8.0 mph /  12.9 km/h 16.1 mph /  25.9 km/h 60 % 0.0 in /  0 mm
18:02 21.2 °F /  -6 °C 12.9 °F /  -10.6 °C 1018.8 in /  34496.6 hPa SW 3.2 mph /  5.1 km/h 16.1 mph /  25.9 km/h 59 % 0.0 in /  0 mm
18:07 21.1 °F /  -6.1 °C 13.0 °F /  -10.6 °C 1018.8 in /  34496.6 hPa WSW 3.2 mph /  5.1 km/h 16.1 mph /  25.9 km/h 60 % 0.0 in /  0 mm
18:12 21.1 °F /  -6.1 °C 13.0 °F /  -10.6 °C 1018.8 in /  34496.6 hPa SSW 3.2 mph /  5.1 km/h 11.3 mph /  18.2 km/h 60 % 0.0 in /  0 mm
18:17 20.9 °F /  -6.2 °C 13.1 °F /  -10.5 °C 1018.8 in /  34496.6 hPa SSW 3.2 mph /  5.1 km/h 11.3 mph /  18.2 km/h 61 % 0.0 in /  0 mm
18:22 20.9 °F /  -6.2 °C 13.3 °F /  -10.4 °C 1018.8 in /  34496.6 hPa SSW 1.6 mph /  2.6 km/h 11.3 mph /  18.2 km/h 62 % 0.0 in /  0 mm
18:27 20.8 °F /  -6.2 °C 13.5 °F /  -10.3 °C 1018.8 in /  34496.6 hPa SW 1.6 mph /  2.6 km/h 6.4 mph /  10.3 km/h 63 % 0.0 in /  0 mm
18:32 20.7 °F /  -6.3 °C 13.6 °F /  -10.2 °C 1018.8 in /  34496.6 hPa SW 1.6 mph /  2.6 km/h 6.4 mph /  10.3 km/h 64 % 0.0 in /  0 mm
18:42 19.8 °F /  -6.8 °C 13.3 °F /  -10.4 °C 1019.2 in /  34510.1 hPa SW 1.6 mph /  2.6 km/h 4.8 mph /  7.7 km/h 66 % 0.0 in /  0 mm
18:52 19.4 °F /  -7 °C 13.1 °F /  -10.5 °C 1018.8 in /  34496.6 hPa SSW 1.6 mph /  2.6 km/h 3.2 mph /  5.1 km/h 67 % 0.0 in /  0 mm
18:57 19.2 °F /  -7.1 °C 13.1 °F /  -10.5 °C 1018.8 in /  34496.6 hPa Calm   3.2 mph /  5.1 km/h 68 % 0.0 in /  0 mm
19:02 18.9 °F /  -7.3 °C 13.1 °F /  -10.5 °C 1018.8 in /  34496.6 hPa Calm   3.2 mph /  5.1 km/h 69 % 0.0 in /  0 mm
19:07 18.6 °F /  -7.4 °C 13.0 °F /  -10.6 °C 1019.2 in /  34510.1 hPa Calm   1.6 mph /  2.6 km/h 70 % 0.0 in /  0 mm
19:12 18.2 °F /  -7.7 °C 13.1 °F /  -10.5 °C 1019.2 in /  34510.1 hPa Calm   1.6 mph /  2.6 km/h 72 % 0.0 in /  0 mm
19:17 17.9 °F /  -7.8 °C 12.8 °F /  -10.7 °C 1019.2 in /  34510.1 hPa Calm   3.2 mph /  5.1 km/h 72 % 0.0 in /  0 mm
19:22 17.7 °F /  -7.9 °C 12.8 °F /  -10.7 °C 1019.2 in /  34510.1 hPa Calm   3.2 mph /  5.1 km/h 73 % 0.0 in /  0 mm
19:27 17.4 °F /  -8.1 °C 12.7 °F /  -10.7 °C 1019.2 in /  34510.1 hPa SSW 1.6 mph /  2.6 km/h 3.2 mph /  5.1 km/h 74 % 0.0 in /  0 mm
19:32 17.1 °F /  -8.3 °C 12.6 °F /  -10.8 °C 1019.2 in /  34510.1 hPa SW 3.2 mph /  5.1 km/h 3.2 mph /  5.1 km/h 75 % 0.0 in /  0 mm
19:37 16.9 °F /  -8.4 °C 12.4 °F /  -10.9 °C 1019.2 in /  34510.1 hPa SW 3.2 mph /  5.1 km/h 3.2 mph /  5.1 km/h 75 % 0.0 in /  0 mm
19:42 17.1 °F /  -8.3 °C 12.6 °F /  -10.8 °C 1019.2 in /  34510.1 hPa Calm   4.8 mph /  7.7 km/h 75 % 0.0 in /  0 mm
19:47 17.1 °F /  -8.3 °C 12.6 °F /  -10.8 °C 1019.2 in /  34510.1 hPa SW 1.6 mph /  2.6 km/h 4.8 mph /  7.7 km/h 75 % 0.0 in /  0 mm
19:52 17.1 °F /  -8.3 °C 12.4 °F /  -10.9 °C 1019.2 in /  34510.1 hPa SW 1.6 mph /  2.6 km/h 4.8 mph /  7.7 km/h 74 % 0.0 in /  0 mm
19:57 17.2 °F /  -8.2 °C 12.5 °F /  -10.8 °C 1019.2 in /  34510.1 hPa SSW 1.6 mph /  2.6 km/h 4.8 mph /  7.7 km/h 74 % 0.0 in /  0 mm
20:02 17.1 °F /  -8.3 °C 12.4 °F /  -10.9 °C 1019.5 in /  34520.3 hPa Calm   3.2 mph /  5.1 km/h 74 % 0.0 in /  0 mm
20:12 16.8 °F /  -8.4 °C 12.5 °F /  -10.8 °C 1019.2 in /  34510.1 hPa SW 1.6 mph /  2.6 km/h 3.2 mph /  5.1 km/h 76 % 0.0 in /  0 mm
20:22 16.4 °F /  -8.7 °C 12.2 °F /  -11 °C 1019.5 in /  34520.3 hPa Calm   3.2 mph /  5.1 km/h 76 % 0.0 in /  0 mm
20:27 16.2 °F /  -8.8 °C 12.2 °F /  -11 °C 1019.5 in /  34520.3 hPa Calm   3.2 mph /  5.1 km/h 77 % 0.0 in /  0 mm
20:37 15.8 °F /  -9 °C 12.2 °F /  -11 °C 1019.5 in /  34520.3 hPa SW 1.6 mph /  2.6 km/h 1.6 mph /  2.6 km/h 79 % 0.0 in /  0 mm
20:42 15.8 °F /  -9 °C 12.4 °F /  -10.9 °C 1019.5 in /  34520.3 hPa West 1.6 mph /  2.6 km/h 3.2 mph /  5.1 km/h 80 % 0.0 in /  0 mm
20:47 15.6 °F /  -9.1 °C 12.4 °F /  -10.9 °C 1019.5 in /  34520.3 hPa West 1.6 mph /  2.6 km/h 3.2 mph /  5.1 km/h 81 % 0.0 in /  0 mm
20:52 15.6 °F /  -9.1 °C 12.4 °F /  -10.9 °C 1019.9 in /  34533.8 hPa Calm   3.2 mph /  5.1 km/h 81 % 0.0 in /  0 mm
20:57 15.7 °F /  -9.1 °C 12.4 °F /  -10.9 °C 1019.9 in /  34533.8 hPa WSW 3.2 mph /  5.1 km/h 4.8 mph /  7.7 km/h 81 % 0.0 in /  0 mm
21:07 15.9 °F /  -8.9 °C 12.6 °F /  -10.8 °C 1019.9 in /  34533.8 hPa SW 3.2 mph /  5.1 km/h 6.4 mph /  10.3 km/h 81 % 0.0 in /  0 mm
21:17 16.0 °F /  -8.9 °C 12.6 °F /  -10.8 °C 1019.9 in /  34533.8 hPa SW 1.6 mph /  2.6 km/h 6.4 mph /  10.3 km/h 80 % 0.0 in /  0 mm
21:27 15.8 °F /  -9 °C 12.5 °F /  -10.8 °C 1019.9 in /  34533.8 hPa Calm   4.8 mph /  7.7 km/h 81 % 0.0 in /  0 mm
21:32 15.4 °F /  -9.2 °C 12.2 °F /  -11 °C 1019.9 in /  34533.8 hPa NE 1.6 mph /  2.6 km/h 4.8 mph /  7.7 km/h 81 % 0.0 in /  0 mm
21:42 14.6 °F /  -9.7 °C 11.9 °F /  -11.2 °C 1019.9 in /  34533.8 hPa Calm   1.6 mph /  2.6 km/h 84 % 0.0 in /  0 mm
21:47 14.6 °F /  -9.7 °C 11.9 °F /  -11.2 °C 1019.9 in /  34533.8 hPa Calm   1.6 mph /  2.6 km/h 84 % 0.0 in /  0 mm
21:52 14.3 °F /  -9.8 °C 11.8 °F /  -11.2 °C 1020.2 in /  34544 hPa Calm   1.6 mph /  2.6 km/h 85 % 0.0 in /  0 mm
21:57 14.2 °F /  -9.9 °C 11.7 °F /  -11.3 °C 1020.2 in /  34544 hPa Calm   1.6 mph /  2.6 km/h 85 % 0.0 in /  0 mm
22:02 14.0 °F /  -10 °C 11.7 °F /  -11.3 °C 1020.2 in /  34544 hPa Calm   1.6 mph /  2.6 km/h 86 % 0.0 in /  0 mm
22:12 13.7 °F /  -10.2 °C 11.4 °F /  -11.4 °C 1020.2 in /  34544 hPa South 1.6 mph /  2.6 km/h 3.2 mph /  5.1 km/h 86 % 0.0 in /  0 mm
22:17 13.4 °F /  -10.3 °C 11.3 °F /  -11.5 °C 1020.2 in /  34544 hPa South 1.6 mph /  2.6 km/h 3.2 mph /  5.1 km/h 87 % 0.0 in /  0 mm
22:22 13.2 °F /  -10.4 °C 11.1 °F /  -11.6 °C 1020.2 in /  34544 hPa South 1.6 mph /  2.6 km/h 3.2 mph /  5.1 km/h 87 % 0.0 in /  0 mm
22:27 13.0 °F /  -10.6 °C 11.1 °F /  -11.6 °C 1020.2 in /  34544 hPa Calm   3.2 mph /  5.1 km/h 88 % 0.0 in /  0 mm
22:37 12.9 °F /  -10.6 °C 11.1 °F /  -11.6 °C 1020.2 in /  34544 hPa Calm   3.2 mph /  5.1 km/h 89 % 0.0 in /  0 mm
22:42 12.9 °F /  -10.6 °C 11.1 °F /  -11.6 °C 1020.2 in /  34544 hPa Calm   1.6 mph /  2.6 km/h 89 % 0.0 in /  0 mm
22:47 12.9 °F /  -10.6 °C 11.1 °F /  -11.6 °C 1020.2 in /  34544 hPa Calm   1.6 mph /  2.6 km/h 89 % 0.0 in /  0 mm
22:52 12.9 °F /  -10.6 °C 11.3 °F /  -11.5 °C 1020.2 in /  34544 hPa Calm   1.6 mph /  2.6 km/h 90 % 0.0 in /  0 mm
22:57 13.0 °F /  -10.6 °C 11.4 °F /  -11.4 °C 1020.5 in /  34554.1 hPa SSW 1.6 mph /  2.6 km/h 3.2 mph /  5.1 km/h 90 % 0.0 in /  0 mm
23:02 13.0 °F /  -10.6 °C 11.2 °F /  -11.6 °C 1020.5 in /  34554.1 hPa South 1.6 mph /  2.6 km/h 3.2 mph /  5.1 km/h 89 % 0.0 in /  0 mm
23:07 13.4 °F /  -10.3 °C 11.5 °F /  -11.4 °C 1020.5 in /  34554.1 hPa SSW 4.8 mph /  7.7 km/h 9.7 mph /  15.6 km/h 88 % 0.0 in /  0 mm
23:12 13.9 °F /  -10.1 °C 11.6 °F /  -11.3 °C 1020.5 in /  34554.1 hPa SSW 4.8 mph /  7.7 km/h 12.9 mph /  20.8 km/h 86 % 0.0 in /  0 mm
23:17 14.3 °F /  -9.8 °C 11.5 °F /  -11.4 °C 1020.5 in /  34554.1 hPa WSW 11.3 mph /  18.2 km/h 12.9 mph /  20.8 km/h 83 % 0.0 in /  0 mm
23:22 14.9 °F /  -9.5 °C 11.9 °F /  -11.2 °C 1020.5 in /  34554.1 hPa SSW 4.8 mph /  7.7 km/h 12.9 mph /  20.8 km/h 82 % 0.0 in /  0 mm
23:27 15.5 °F /  -9.2 °C 12.1 °F /  -11.1 °C 1020.9 in /  34567.7 hPa WSW 6.4 mph /  10.3 km/h 17.7 mph /  28.5 km/h 80 % 0.0 in /  0 mm
23:32 15.7 °F /  -9.1 °C 12.1 °F /  -11.1 °C 1020.9 in /  34567.7 hPa WSW 4.8 mph /  7.7 km/h 17.7 mph /  28.5 km/h 79 % 0.0 in /  0 mm
23:42 15.9 °F /  -8.9 °C 12.1 °F /  -11.1 °C 1020.9 in /  34567.7 hPa WSW 6.4 mph /  10.3 km/h 17.7 mph /  28.5 km/h 78 % 0.0 in /  0 mm
23:47 15.9 °F /  -8.9 °C 12.3 °F /  -10.9 °C 1020.9 in /  34567.7 hPa WSW 8.0 mph /  12.9 km/h 22.5 mph /  36.2 km/h 79 % 0.0 in /  0 mm
23:52 15.9 °F /  -8.9 °C 12.3 °F /  -10.9 °C 1020.9 in /  34567.7 hPa WSW 9.7 mph /  15.6 km/h 22.5 mph /  36.2 km/h 79 % 0.0 in /  0 mm
23:57 15.8 °F /  -9 °C 12.4 °F /  -10.9 °C 1020.9 in /  34567.7 hPa WSW 19.3 mph /  31.1 km/h 22.5 mph /  36.2 km/h 80 % 0.0 in /  0 mm
Meteo18
Compliments of Weather Underground - 4 mb

Script developed by  Jim McMurry - jmcmurry@mwt.net Adapted for the template by  Wim van der Kuil - Leuven-Template.eu

You find our weather info also at:

European Weather Network

Weather Underground

Equipment we use:

Weather-station
Davis Vue

Weather-program
Meteobridge

Weather-server
Raspberry PI 2 B+

Provider
1 and 1

Davis Vue

Meteobridge

Raspberry PI 2 B+

1 and 1